Aviation Digital Data Service (ADDS)

Output produced by TAFs form (0040 UTC 24 April 2014)
found at http://www.aviationweather.gov/adds/tafs/
 
KMRB 232338Z 2400/2424 32014G22KT P6SM SKC 
     FM240200 31012KT P6SM SKC 
     FM240700 31008KT P6SM SKC 
     FM241300 33012G20KT P6SM SCT250 
     FM242300 01004KT P6SM SCT250